createdAt,value
2022-07-27T00:01:50.689Z,0.77
2022-07-27T00:04:18.955Z,1.27
2022-07-27T00:06:45.873Z,0.80
2022-07-27T00:09:12.989Z,0.70
2022-07-27T00:11:39.966Z,0.90
2022-07-27T00:14:07.052Z,1.00
2022-07-27T00:16:33.898Z,0.70
2022-07-27T00:19:01.001Z,0.93
2022-07-27T00:21:28.009Z,0.87
2022-07-27T00:23:55.127Z,0.93
2022-07-27T00:26:21.910Z,0.90
2022-07-27T00:28:49.398Z,0.83
2022-07-27T00:31:16.336Z,0.90
2022-07-27T00:33:43.314Z,0.90
2022-07-27T00:36:10.212Z,0.90
2022-07-27T00:38:36.956Z,1.10
2022-07-27T00:41:03.815Z,0.80
2022-07-27T00:43:30.596Z,1.07
2022-07-27T00:45:57.432Z,1.00
2022-07-27T00:48:24.337Z,1.57
2022-07-27T00:50:53.295Z,0.80
2022-07-27T00:53:20.160Z,0.90
2022-07-27T00:55:47.017Z,0.80
2022-07-27T00:58:13.799Z,0.73
2022-07-27T01:00:40.533Z,1.13
2022-07-27T01:03:09.192Z,0.80
2022-07-27T01:05:37.951Z,0.87
2022-07-27T01:08:12.137Z,0.80
2022-07-27T01:10:40.005Z,1.13
2022-07-27T01:13:06.746Z,0.77
2022-07-27T01:15:39.796Z,0.73
2022-07-27T01:18:12.967Z,0.60
2022-07-27T01:20:41.396Z,0.50
2022-07-27T01:23:08.628Z,0.70
2022-07-27T01:25:35.512Z,0.90
2022-07-27T01:28:02.226Z,0.97
2022-07-27T01:30:30.441Z,0.80
2022-07-27T01:33:03.714Z,0.80
2022-07-27T01:35:30.661Z,0.77
2022-07-27T01:37:57.469Z,0.90
2022-07-27T01:40:24.258Z,1.00
2022-07-27T01:42:51.074Z,0.80
2022-07-27T01:45:17.953Z,0.80
2022-07-27T01:47:44.770Z,0.90
2022-07-27T01:50:11.871Z,0.50
2022-07-27T01:52:39.330Z,0.80
2022-07-27T01:55:10.369Z,0.80
2022-07-27T01:57:37.558Z,0.73
2022-07-27T02:00:09.361Z,0.87
2022-07-27T02:02:36.265Z,0.57
2022-07-27T02:05:03.420Z,0.97
2022-07-27T02:07:30.264Z,0.90
2022-07-27T02:09:57.005Z,0.90
2022-07-27T02:12:35.513Z,1.00
2022-07-27T02:15:28.441Z,0.80
2022-07-27T02:18:32.946Z,0.83
2022-07-27T02:20:56.611Z,0.97
2022-07-27T02:23:23.341Z,0.93
2022-07-27T02:25:50.202Z,1.27
2022-07-27T02:28:16.961Z,0.93
2022-07-27T02:30:43.802Z,0.90
2022-07-27T02:33:10.727Z,0.90
2022-07-27T02:35:38.468Z,0.67
2022-07-27T02:38:05.257Z,1.03
2022-07-27T02:40:31.977Z,1.37
2022-07-27T02:42:58.730Z,0.60
2022-07-27T02:45:25.421Z,1.07
2022-07-27T02:47:52.137Z,0.87
2022-07-27T02:50:18.957Z,0.80
2022-07-27T02:52:45.693Z,1.00
2022-07-27T02:55:13.638Z,1.23
2022-07-27T02:57:41.342Z,1.20
2022-07-27T03:00:13.899Z,1.27
2022-07-27T03:02:40.821Z,1.30
2022-07-27T03:05:08.222Z,1.10
2022-07-27T03:07:34.992Z,1.17
2022-07-27T03:10:01.765Z,1.10
2022-07-27T03:12:28.525Z,0.93
2022-07-27T03:14:56.463Z,1.10
2022-07-27T03:17:23.199Z,1.03
2022-07-27T03:19:50.117Z,1.20
2022-07-27T03:22:17.007Z,1.10
2022-07-27T03:24:43.765Z,1.10
2022-07-27T03:27:10.482Z,1.07
2022-07-27T03:29:37.248Z,1.07
2022-07-27T03:32:04.082Z,1.30
2022-07-27T03:34:30.838Z,0.90
2022-07-27T03:36:57.549Z,1.50
2022-07-27T03:39:24.417Z,1.00
2022-07-27T03:41:51.199Z,1.10
2022-07-27T03:44:17.915Z,1.70
2022-07-27T03:46:44.771Z,1.23
2022-07-27T03:49:14.556Z,1.63
2022-07-27T03:51:42.306Z,1.70
2022-07-27T03:54:09.345Z,2.13
2022-07-27T03:56:36.105Z,2.10
2022-07-27T03:59:02.869Z,1.40
2022-07-27T04:01:29.805Z,1.80
2022-07-27T04:03:56.633Z,1.33
2022-07-27T04:06:23.403Z,1.30
2022-07-27T04:08:50.746Z,1.37
2022-07-27T04:11:20.673Z,1.60
2022-07-27T04:13:51.121Z,1.60
2022-07-27T04:16:17.895Z,1.60
2022-07-27T04:18:44.805Z,2.10
2022-07-27T04:21:12.024Z,1.50
2022-07-27T04:23:38.739Z,1.70
2022-07-27T04:26:06.807Z,1.73
2022-07-27T04:28:34.878Z,3.00
2022-07-27T04:31:01.779Z,2.10
2022-07-27T04:33:28.649Z,2.20
2022-07-27T04:35:55.810Z,2.20
2022-07-27T04:38:22.560Z,1.80
2022-07-27T04:40:49.326Z,1.77
2022-07-27T04:43:16.267Z,1.90
2022-07-27T04:45:44.319Z,1.80
2022-07-27T04:48:11.284Z,1.70
2022-07-27T04:50:44.649Z,1.80
2022-07-27T04:53:12.062Z,1.83
2022-07-27T04:55:42.119Z,1.77
2022-07-27T04:58:09.071Z,1.40
2022-07-27T05:00:35.879Z,1.80
2022-07-27T05:03:02.787Z,2.10
2022-07-27T05:05:29.524Z,1.93
2022-07-27T05:07:56.397Z,1.70
2022-07-27T05:10:23.241Z,1.80
2022-07-27T05:12:50.205Z,2.00
2022-07-27T05:15:17.061Z,1.50
2022-07-27T05:17:44.166Z,1.90
2022-07-27T05:20:11.537Z,1.30
2022-07-27T05:22:40.061Z,1.63
2022-07-27T05:25:07.846Z,1.70
2022-07-27T05:27:34.581Z,1.50
2022-07-27T05:30:01.341Z,2.10
2022-07-27T05:32:28.133Z,2.10
2022-07-27T05:34:54.840Z,2.00
2022-07-27T05:37:21.617Z,1.53
2022-07-27T05:39:48.344Z,1.70
2022-07-27T05:42:15.135Z,1.50
2022-07-27T05:44:41.961Z,1.40
2022-07-27T05:47:11.449Z,1.83
2022-07-27T05:49:38.436Z,1.93
2022-07-27T05:52:05.525Z,2.00
2022-07-27T05:54:32.225Z,2.33
2022-07-27T05:56:59.341Z,2.13
2022-07-27T05:59:26.280Z,1.80
2022-07-27T06:01:53.029Z,1.93
2022-07-27T06:04:19.863Z,2.00
2022-07-27T06:07:04.922Z,2.00
2022-07-27T06:09:31.755Z,2.00
2022-07-27T06:11:58.541Z,1.73
2022-07-27T06:14:25.302Z,1.77
2022-07-27T06:16:52.206Z,2.10
2022-07-27T06:19:19.016Z,1.63
2022-07-27T06:21:50.256Z,2.40
2022-07-27T06:24:20.241Z,2.43
2022-07-27T06:26:47.052Z,1.87
2022-07-27T06:29:14.340Z,2.67
2022-07-27T06:31:42.787Z,2.90
2022-07-27T06:34:12.021Z,3.27
2022-07-27T06:36:39.881Z,3.50
2022-07-27T06:39:06.631Z,3.00
2022-07-27T06:41:34.630Z,2.47
2022-07-27T06:44:01.430Z,2.37
2022-07-27T06:46:28.302Z,2.23
2022-07-27T06:48:56.837Z,2.10
2022-07-27T06:51:24.113Z,2.60
2022-07-27T06:53:53.225Z,2.50
2022-07-27T06:56:20.582Z,2.33
2022-07-27T06:58:47.430Z,2.67
2022-07-27T07:01:17.884Z,2.27
2022-07-27T07:03:44.797Z,2.30
2022-07-27T07:06:11.636Z,2.40
2022-07-27T07:08:38.761Z,2.10
2022-07-27T07:11:05.730Z,2.10
2022-07-27T07:13:36.951Z,2.10
2022-07-27T07:16:05.582Z,2.40
2022-07-27T07:18:32.325Z,2.07
2022-07-27T07:20:59.123Z,1.83
2022-07-27T07:23:25.888Z,2.23
2022-07-27T07:25:52.658Z,2.00
2022-07-27T07:28:22.191Z,2.07
2022-07-27T07:30:49.414Z,2.10
2022-07-27T07:33:16.291Z,2.03
2022-07-27T07:36:08.831Z,1.93
2022-07-27T07:38:30.228Z,1.83
2022-07-27T07:40:56.949Z,2.13
2022-07-27T07:43:23.710Z,1.73
2022-07-27T07:45:52.168Z,1.80
2022-07-27T07:48:22.858Z,1.70
2022-07-27T07:50:51.817Z,2.17
2022-07-27T07:53:21.623Z,1.70
2022-07-27T07:55:48.413Z,1.57
2022-07-27T07:58:15.295Z,1.60
2022-07-27T08:00:43.798Z,2.20
2022-07-27T08:03:10.785Z,1.93
2022-07-27T08:05:37.765Z,2.13
2022-07-27T08:08:04.845Z,2.43
2022-07-27T08:10:31.952Z,1.83
2022-07-27T08:12:58.724Z,2.13
2022-07-27T08:15:34.818Z,2.20
2022-07-27T08:18:04.270Z,1.97
2022-07-27T08:20:31.038Z,2.03
2022-07-27T08:22:57.920Z,2.60
2022-07-27T08:25:24.686Z,2.20
2022-07-27T08:27:51.488Z,2.23
2022-07-27T08:30:18.415Z,1.73
2022-07-27T08:32:52.804Z,2.00
2022-07-27T08:35:19.983Z,1.50
2022-07-27T08:37:46.754Z,1.80
2022-07-27T08:43:01.303Z,1.87
2022-07-27T08:45:28.241Z,1.83
2022-07-27T08:47:55.045Z,1.80
2022-07-27T08:50:24.636Z,2.10
2022-07-27T08:52:57.117Z,1.70
2022-07-27T08:55:23.927Z,1.50
2022-07-27T08:57:51.297Z,2.10
2022-07-27T09:00:19.333Z,1.70
2022-07-27T09:02:46.556Z,2.20
2022-07-27T09:05:13.581Z,2.27
2022-07-27T09:07:40.337Z,1.67
2022-07-27T09:10:07.885Z,1.80
2022-07-27T09:12:35.337Z,1.90
2022-07-27T09:15:06.496Z,2.00
2022-07-27T09:17:49.863Z,2.60
2022-07-27T09:20:19.142Z,1.87
2022-07-27T09:22:50.762Z,1.53
2022-07-27T09:25:28.454Z,2.17
2022-07-27T09:28:06.038Z,2.10
2022-07-27T09:30:33.049Z,2.07
2022-07-27T09:33:06.197Z,2.00
2022-07-27T09:35:35.399Z,1.70
2022-07-27T09:38:21.799Z,1.80
2022-07-27T09:40:58.297Z,2.50
2022-07-27T09:44:28.618Z,2.10
2022-07-27T09:46:12.373Z,2.30
2022-07-27T09:48:39.360Z,2.17
2022-07-27T09:51:55.612Z,2.30
2022-07-27T09:53:58.989Z,2.60
2022-07-27T09:56:30.271Z,2.73
2022-07-27T09:59:01.514Z,2.20
2022-07-27T10:01:35.094Z,1.83
2022-07-27T10:04:03.739Z,1.40
2022-07-27T10:06:38.946Z,2.17
2022-07-27T10:09:14.847Z,2.37
2022-07-27T10:11:41.591Z,2.40
2022-07-27T10:14:08.325Z,1.80
2022-07-27T10:16:35.477Z,1.57
2022-07-27T10:19:15.685Z,2.30
2022-07-27T10:21:45.075Z,1.87
2022-07-27T10:24:22.992Z,1.90
2022-07-27T10:26:49.736Z,1.90
2022-07-27T10:29:20.829Z,1.63
2022-07-27T10:31:53.702Z,1.93
2022-07-27T10:34:39.191Z,1.70
2022-07-27T10:37:12.908Z,1.80
2022-07-27T10:39:44.214Z,1.80
2022-07-27T10:42:22.363Z,1.87
2022-07-27T10:45:04.072Z,1.67
2022-07-27T10:47:32.295Z,1.67
2022-07-27T10:50:23.713Z,2.23
2022-07-27T10:52:55.680Z,1.67
2022-07-27T10:55:32.149Z,1.83
2022-07-27T10:58:19.913Z,1.80
2022-07-27T11:00:54.098Z,1.63
2022-07-27T11:03:26.619Z,2.10
2022-07-27T11:06:32.593Z,1.70
2022-07-27T11:09:53.256Z,1.60
2022-07-27T11:11:51.650Z,1.53
2022-07-27T11:14:19.188Z,2.07
2022-07-27T11:17:12.321Z,1.90
2022-07-27T11:19:44.500Z,2.00
2022-07-27T11:22:28.277Z,2.20
2022-07-27T11:24:55.705Z,1.80
2022-07-27T11:27:25.357Z,1.50
2022-07-27T11:29:52.387Z,1.77
2022-07-27T11:32:19.941Z,1.87
2022-07-27T11:34:46.835Z,1.40
2022-07-27T11:37:15.052Z,1.60
2022-07-27T11:42:38.328Z,1.40
2022-07-27T11:45:06.648Z,1.67
2022-07-27T11:47:34.157Z,2.00
2022-07-27T11:50:08.317Z,2.13
2022-07-27T11:52:35.136Z,2.40
2022-07-27T11:55:01.857Z,2.10
2022-07-27T11:57:33.107Z,1.70
2022-07-27T11:59:59.857Z,2.20
2022-07-27T12:02:27.384Z,2.00
2022-07-27T12:04:57.841Z,1.90
2022-07-27T12:07:30.593Z,2.63
2022-07-27T12:09:58.809Z,1.70
2022-07-27T12:12:26.109Z,2.13
2022-07-27T12:15:11.795Z,1.70
2022-07-27T12:17:55.769Z,2.17
2022-07-27T12:20:24.941Z,2.53
2022-07-27T12:22:53.832Z,3.10
2022-07-27T12:25:23.818Z,1.80
2022-07-27T12:27:56.743Z,2.10
2022-07-27T12:30:37.295Z,2.30
2022-07-27T12:33:08.424Z,1.87
2022-07-27T12:35:46.283Z,1.37
2022-07-27T12:38:13.445Z,2.07
2022-07-27T12:41:01.154Z,2.50
2022-07-27T12:43:28.381Z,2.43
2022-07-27T12:45:55.242Z,2.47
2022-07-27T12:48:26.629Z,2.33
2022-07-27T12:51:03.109Z,2.10
2022-07-27T12:53:30.021Z,2.20
2022-07-27T12:55:57.978Z,2.40
2022-07-27T12:58:25.275Z,2.10
2022-07-27T13:00:52.112Z,2.30
2022-07-27T13:03:18.901Z,2.27
2022-07-27T13:05:45.731Z,2.57
2022-07-27T13:08:12.463Z,1.90
2022-07-27T13:10:44.700Z,1.60
2022-07-27T13:13:11.617Z,1.77
2022-07-27T13:15:38.379Z,1.90
2022-07-27T13:18:05.156Z,2.37
2022-07-27T13:20:32.008Z,2.30
2022-07-27T13:22:58.739Z,2.30
2022-07-27T13:25:25.469Z,1.90
2022-07-27T13:27:52.518Z,2.20
2022-07-27T13:30:19.502Z,2.30
2022-07-27T13:32:47.019Z,2.23
2022-07-27T13:35:14.767Z,2.00
2022-07-27T13:37:41.533Z,2.37
2022-07-27T13:40:09.132Z,1.80
2022-07-27T13:42:35.972Z,2.13
2022-07-27T13:45:09.206Z,1.83
2022-07-27T13:47:37.895Z,2.10
2022-07-27T13:50:05.227Z,2.27
2022-07-27T13:52:32.065Z,1.60
2022-07-27T13:54:58.847Z,2.30
2022-07-27T13:57:25.656Z,2.20
2022-07-27T13:59:52.512Z,2.63
2022-07-27T14:02:22.873Z,1.60
2022-07-27T14:04:50.290Z,1.93
2022-07-27T14:07:17.156Z,2.00
2022-07-27T14:10:02.615Z,2.17
2022-07-27T14:12:29.557Z,1.83
2022-07-27T14:14:56.454Z,1.70
2022-07-27T14:17:23.315Z,2.10
2022-07-27T14:19:50.093Z,1.87
2022-07-27T14:22:16.803Z,1.77
2022-07-27T14:24:43.903Z,1.60
2022-07-27T14:27:10.692Z,1.80
2022-07-27T14:29:37.551Z,2.00
2022-07-27T14:32:04.563Z,1.90
2022-07-27T14:34:31.390Z,2.33
2022-07-27T14:36:58.160Z,1.80
2022-07-27T14:39:25.169Z,1.97
2022-07-27T14:41:52.085Z,1.87
2022-07-27T14:44:19.147Z,1.50
2022-07-27T14:46:46.610Z,1.83
2022-07-27T14:49:14.837Z,1.70
2022-07-27T14:51:41.899Z,1.63
2022-07-27T14:54:08.789Z,1.53
2022-07-27T14:56:36.599Z,1.60
2022-07-27T14:59:03.773Z,1.33
2022-07-27T15:01:30.626Z,1.60
2022-07-27T15:03:57.478Z,1.27
2022-07-27T15:06:24.261Z,1.53
2022-07-27T15:08:51.014Z,1.10
2022-07-27T15:11:17.779Z,1.27
2022-07-27T15:13:44.605Z,1.40
2022-07-27T15:16:12.123Z,1.20
2022-07-27T15:18:39.191Z,1.40
2022-07-27T15:21:12.785Z,1.20
2022-07-27T15:23:39.980Z,0.90
2022-07-27T15:26:06.736Z,1.43
2022-07-27T15:28:33.480Z,1.10
2022-07-27T15:31:00.282Z,1.10
2022-07-27T15:33:27.038Z,1.10
2022-07-27T15:35:54.032Z,1.20
2022-07-27T15:38:21.207Z,1.10
2022-07-27T15:40:48.181Z,1.20
2022-07-27T15:43:16.172Z,1.43
2022-07-27T15:45:45.655Z,1.03
2022-07-27T15:48:12.658Z,1.17
2022-07-27T15:50:40.490Z,1.37
2022-07-27T15:53:07.393Z,1.20
2022-07-27T15:55:34.559Z,1.13
2022-07-27T15:58:01.374Z,1.07
2022-07-27T16:00:28.899Z,1.03
2022-07-27T16:02:55.949Z,1.20
2022-07-27T16:05:23.915Z,1.30
2022-07-27T16:07:50.769Z,1.10
2022-07-27T16:10:17.488Z,1.20
2022-07-27T16:12:44.260Z,1.10
2022-07-27T16:15:11.174Z,1.20
2022-07-27T16:17:37.954Z,1.20
2022-07-27T16:20:05.364Z,0.97
2022-07-27T16:22:34.302Z,1.10
2022-07-27T16:25:01.104Z,1.07
2022-07-27T16:27:28.656Z,1.33
2022-07-27T16:29:55.622Z,1.10
2022-07-27T16:32:22.398Z,1.00
2022-07-27T16:34:49.531Z,1.00
2022-07-27T16:37:16.297Z,1.00
2022-07-27T16:39:43.111Z,1.03
2022-07-27T16:42:09.957Z,1.03
2022-07-27T16:44:38.969Z,1.00
2022-07-27T16:47:06.866Z,1.30
2022-07-27T16:49:36.869Z,1.20
2022-07-27T16:52:05.240Z,0.80
2022-07-27T16:54:36.961Z,1.07
2022-07-27T16:57:05.997Z,1.00
2022-07-27T16:59:32.703Z,0.90
2022-07-27T17:01:59.487Z,1.20
2022-07-27T17:04:27.904Z,0.77
2022-07-27T17:06:54.886Z,1.00
2022-07-27T17:09:21.640Z,1.20
2022-07-27T17:11:48.423Z,0.60
2022-07-27T17:14:16.626Z,1.10
2022-07-27T17:16:50.274Z,1.20
2022-07-27T17:19:19.149Z,1.23
2022-07-27T17:21:46.159Z,0.93
2022-07-27T17:24:12.900Z,0.80
2022-07-27T17:26:39.676Z,0.73
2022-07-27T17:29:06.366Z,1.20
2022-07-27T17:31:33.162Z,1.00
2022-07-27T17:34:00.022Z,0.70
2022-07-27T17:36:26.778Z,0.60
2022-07-27T17:38:53.527Z,1.10
2022-07-27T17:41:24.435Z,0.97
2022-07-27T17:43:53.333Z,0.87
2022-07-27T17:46:20.173Z,0.87
2022-07-27T17:48:47.106Z,1.03
2022-07-27T17:51:13.920Z,1.10
2022-07-27T17:53:40.662Z,1.07
2022-07-27T17:56:08.446Z,0.90
2022-07-27T17:58:35.424Z,0.80
2022-07-27T18:01:02.207Z,1.10
2022-07-27T18:03:29.053Z,0.87
2022-07-27T18:05:55.889Z,1.03
2022-07-27T18:08:22.697Z,0.90
2022-07-27T18:10:51.519Z,0.77
2022-07-27T18:13:18.554Z,0.73
2022-07-27T18:15:48.117Z,0.83
2022-07-27T18:18:18.759Z,1.00
2022-07-27T18:20:46.265Z,0.80
2022-07-27T18:23:13.127Z,0.80
2022-07-27T18:25:39.905Z,1.10
2022-07-27T18:28:06.780Z,0.73
2022-07-27T18:30:33.584Z,0.80
2022-07-27T18:33:00.351Z,1.10
2022-07-27T18:35:27.105Z,0.70
2022-07-27T18:37:53.913Z,0.97
2022-07-27T18:40:21.768Z,0.90
2022-07-27T18:42:48.739Z,1.00
2022-07-27T18:45:15.616Z,0.90
2022-07-27T18:47:49.563Z,0.80
2022-07-27T18:50:16.763Z,0.90
2022-07-27T18:52:43.530Z,0.77
2022-07-27T18:55:10.599Z,1.00
2022-07-27T18:57:37.375Z,0.90
2022-07-27T19:00:04.968Z,0.70
2022-07-27T19:02:37.165Z,1.07
2022-07-27T19:05:07.337Z,0.83
2022-07-27T19:07:36.003Z,0.70
2022-07-27T19:10:06.029Z,0.60
2022-07-27T19:12:32.805Z,0.80
2022-07-27T19:14:59.606Z,0.60
2022-07-27T19:17:26.470Z,0.50
2022-07-27T19:19:53.721Z,0.70
2022-07-27T19:22:20.952Z,0.50
2022-07-27T19:24:51.486Z,0.90
2022-07-27T19:27:21.589Z,1.10
2022-07-27T19:29:48.300Z,1.10
2022-07-27T19:32:15.052Z,1.30
2022-07-27T19:34:41.837Z,0.90
2022-07-27T19:37:08.662Z,0.90
2022-07-27T19:39:58.529Z,0.80
2022-07-27T19:42:23.225Z,1.20
2022-07-27T19:44:49.993Z,0.90
2022-07-27T19:47:16.951Z,0.73
2022-07-27T19:49:43.762Z,1.00
2022-07-27T19:52:10.559Z,1.10
2022-07-27T19:54:37.318Z,0.93
2022-07-27T19:57:04.293Z,1.40
2022-07-27T19:59:56.422Z,1.00
2022-07-27T20:02:19.392Z,1.30
2022-07-27T20:04:46.143Z,1.40
2022-07-27T20:07:13.018Z,1.20
2022-07-27T20:09:39.804Z,1.10
2022-07-27T20:12:08.231Z,1.33
2022-07-27T20:14:35.254Z,1.50
2022-07-27T20:17:02.134Z,1.40
2022-07-27T20:19:29.921Z,1.33
2022-07-27T20:21:57.499Z,1.10
2022-07-27T20:24:24.261Z,1.40
2022-07-27T20:26:50.996Z,0.90
2022-07-27T20:29:17.809Z,1.30
2022-07-27T20:31:44.573Z,1.47
2022-07-27T20:34:11.594Z,1.20
2022-07-27T20:36:38.329Z,1.30
2022-07-27T20:39:07.400Z,1.10
2022-07-27T20:41:34.312Z,1.07
2022-07-27T20:44:01.070Z,1.10
2022-07-27T20:46:28.038Z,1.20
2022-07-27T20:48:54.897Z,1.43
2022-07-27T20:51:21.788Z,1.20
2022-07-27T20:53:49.233Z,1.30
2022-07-27T20:56:15.989Z,1.27
2022-07-27T20:58:43.007Z,1.47
2022-07-27T21:01:09.818Z,1.40
2022-07-27T21:03:36.687Z,1.30
2022-07-27T21:06:03.620Z,1.40
2022-07-27T21:08:30.392Z,1.20
2022-07-27T21:10:57.305Z,1.27
2022-07-27T21:13:24.063Z,1.33
2022-07-27T21:15:50.915Z,1.10
2022-07-27T21:18:17.688Z,1.47
2022-07-27T21:20:44.561Z,1.20
2022-07-27T21:23:29.781Z,1.20
2022-07-27T21:25:56.946Z,1.40
2022-07-27T21:28:25.103Z,1.33
2022-07-27T21:30:52.311Z,1.20
2022-07-27T21:33:19.309Z,1.00
2022-07-27T21:35:46.099Z,0.90
2022-07-27T21:38:12.834Z,1.10
2022-07-27T21:40:39.577Z,0.90
2022-07-27T21:43:06.277Z,1.00
2022-07-27T21:45:33.151Z,1.10
2022-07-27T21:47:59.958Z,1.20
2022-07-27T21:50:26.825Z,1.00
2022-07-27T21:52:53.848Z,1.20
2022-07-27T21:55:23.291Z,0.90
2022-07-27T21:57:51.054Z,0.93
2022-07-27T22:00:23.864Z,0.80
2022-07-27T22:02:51.414Z,0.70
2022-07-27T22:05:18.308Z,0.90
2022-07-27T22:07:45.049Z,0.90
2022-07-27T22:10:11.832Z,0.80
2022-07-27T22:12:38.645Z,0.80
2022-07-27T22:15:05.812Z,0.80
2022-07-27T22:17:32.573Z,0.87
2022-07-27T22:19:59.305Z,0.87
2022-07-27T22:22:26.101Z,1.27
2022-07-27T22:24:52.803Z,0.90
2022-07-27T22:27:19.575Z,1.00
2022-07-27T22:29:46.345Z,0.60
2022-07-27T22:32:13.078Z,0.77
2022-07-27T22:34:40.396Z,1.00
2022-07-27T22:37:07.169Z,1.03
2022-07-27T22:39:34.213Z,1.07
2022-07-27T22:42:00.929Z,0.70
2022-07-27T22:44:27.665Z,0.77
2022-07-27T22:46:54.454Z,1.10
2022-07-27T22:49:22.725Z,1.13
2022-07-27T22:51:52.813Z,0.80
2022-07-27T22:54:21.139Z,0.90
2022-07-27T22:56:48.280Z,0.77
2022-07-27T22:59:15.043Z,0.80
2022-07-27T23:01:47.191Z,0.77
2022-07-27T23:04:15.253Z,1.23
2022-07-27T23:06:42.491Z,1.43
2022-07-27T23:09:09.307Z,1.03
2022-07-27T23:11:36.131Z,1.20
2022-07-27T23:14:03.159Z,1.20
2022-07-27T23:16:29.910Z,1.10
2022-07-27T23:18:56.858Z,1.20
2022-07-27T23:21:23.621Z,1.20
2022-07-27T23:23:53.583Z,1.67
2022-07-27T23:26:25.737Z,0.80
2022-07-27T23:28:53.125Z,1.00
2022-07-27T23:31:19.856Z,0.93
2022-07-27T23:33:47.069Z,1.30
2022-07-27T23:36:13.850Z,1.00
2022-07-27T23:38:40.708Z,1.00
2022-07-27T23:41:08.277Z,0.97
2022-07-27T23:43:35.083Z,1.20
2022-07-27T23:46:02.867Z,1.20
2022-07-27T23:48:29.805Z,0.97
2022-07-27T23:50:56.571Z,1.10
2022-07-27T23:53:23.924Z,1.40
2022-07-27T23:55:50.753Z,1.57
2022-07-27T23:58:17.490Z,1.07
